sensor_id;sensor_type;location;lat;lon;timestamp;P1;durP1;ratioP1;P2;durP2;ratioP2
54815;SDS011;40715;55.752;37.884;2022-09-09T00:04:00;0.00;;;0.00;;
54815;SDS011;40715;55.752;37.884;2022-09-09T00:06:33;0.00;;;0.00;;
54815;SDS011;40715;55.752;37.884;2022-09-09T00:09:19;0.00;;;0.00;;
54815;SDS011;40715;55.752;37.884;2022-09-09T00:11:54;0.00;;;0.00;;
54815;SDS011;40715;55.752;37.884;2022-09-09T00:17:24;0.00;;;0.00;;
54815;SDS011;40715;55.752;37.884;2022-09-09T00:22:43;0.00;;;0.00;;
54815;SDS011;40715;55.752;37.884;2022-09-09T00:25:28;0.00;;;0.00;;
54815;SDS011;40715;55.752;37.884;2022-09-09T00:28:00;0.00;;;0.00;;
54815;SDS011;40715;55.752;37.884;2022-09-09T00:30:30;0.00;;;0.00;;
54815;SDS011;40715;55.752;37.884;2022-09-09T00:33:01;0.00;;;0.00;;
54815;SDS011;40715;55.752;37.884;2022-09-09T00:35:40;0.00;;;0.00;;
54815;SDS011;40715;55.752;37.884;2022-09-09T00:38:14;0.10;;;0.00;;
54815;SDS011;40715;55.752;37.884;2022-09-09T00:43:30;0.00;;;0.00;;
54815;SDS011;40715;55.752;37.884;2022-09-09T00:48:38;0.00;;;0.00;;
54815;SDS011;40715;55.752;37.884;2022-09-09T00:51:52;0.00;;;0.00;;
54815;SDS011;40715;55.752;37.884;2022-09-09T00:57:07;0.00;;;0.00;;
54815;SDS011;40715;55.752;37.884;2022-09-09T01:08:03;0.00;;;0.00;;
54815;SDS011;40715;55.752;37.884;2022-09-09T01:10:51;0.00;;;0.00;;
54815;SDS011;40715;55.752;37.884;2022-09-09T01:13:22;0.00;;;0.00;;
54815;SDS011;40715;55.752;37.884;2022-09-09T01:15:52;0.00;;;0.00;;
54815;SDS011;40715;55.752;37.884;2022-09-09T01:18:26;0.00;;;0.00;;
54815;SDS011;40715;55.752;37.884;2022-09-09T01:26:42;0.00;;;0.00;;
54815;SDS011;40715;55.752;37.884;2022-09-09T01:29:15;0.00;;;0.00;;
54815;SDS011;40715;55.752;37.884;2022-09-09T01:34:25;0.00;;;0.00;;
54815;SDS011;40715;55.752;37.884;2022-09-09T01:39:39;0.00;;;0.00;;
54815;SDS011;40715;55.752;37.884;2022-09-09T01:42:10;0.00;;;0.00;;
54815;SDS011;40715;55.752;37.884;2022-09-09T01:44:40;0.00;;;0.00;;
54815;SDS011;40715;55.752;37.884;2022-09-09T01:47:07;0.00;;;0.00;;
54815;SDS011;40715;55.752;37.884;2022-09-09T01:49:34;0.00;;;0.00;;
54815;SDS011;40715;55.752;37.884;2022-09-09T01:52:02;0.00;;;0.00;;
54815;SDS011;40715;55.752;37.884;2022-09-09T01:54:29;0.00;;;0.00;;
54815;SDS011;40715;55.752;37.884;2022-09-09T01:57:15;0.00;;;0.00;;
54815;SDS011;40715;55.752;37.884;2022-09-09T02:02:31;0.00;;;0.00;;
54815;SDS011;40715;55.752;37.884;2022-09-09T02:08:20;0.00;;;0.00;;
54815;SDS011;40715;55.752;37.884;2022-09-09T02:11:00;0.00;;;0.00;;
54815;SDS011;40715;55.752;37.884;2022-09-09T02:13:34;0.00;;;0.00;;
54815;SDS011;40715;55.752;37.884;2022-09-09T02:16:14;0.00;;;0.00;;
54815;SDS011;40715;55.752;37.884;2022-09-09T02:18:51;0.00;;;0.00;;
54815;SDS011;40715;55.752;37.884;2022-09-09T02:21:23;0.00;;;0.00;;
54815;SDS011;40715;55.752;37.884;2022-09-09T02:23:55;0.00;;;0.00;;
54815;SDS011;40715;55.752;37.884;2022-09-09T02:26:25;0.00;;;0.00;;
54815;SDS011;40715;55.752;37.884;2022-09-09T02:28:53;0.00;;;0.00;;
54815;SDS011;40715;55.752;37.884;2022-09-09T02:31:24;0.00;;;0.00;;
54815;SDS011;40715;55.752;37.884;2022-09-09T02:33:54;0.00;;;0.00;;
54815;SDS011;40715;55.752;37.884;2022-09-09T02:36:25;0.00;;;0.00;;
54815;SDS011;40715;55.752;37.884;2022-09-09T02:38:55;0.00;;;0.00;;
54815;SDS011;40715;55.752;37.884;2022-09-09T02:41:24;0.00;;;0.00;;
54815;SDS011;40715;55.752;37.884;2022-09-09T02:44:00;0.00;;;0.00;;
54815;SDS011;40715;55.752;37.884;2022-09-09T02:46:32;0.00;;;0.00;;
54815;SDS011;40715;55.752;37.884;2022-09-09T02:52:19;0.00;;;0.00;;
54815;SDS011;40715;55.752;37.884;2022-09-09T02:54:53;0.00;;;0.00;;
54815;SDS011;40715;55.752;37.884;2022-09-09T02:57:27;0.00;;;0.00;;
54815;SDS011;40715;55.752;37.884;2022-09-09T02:59:59;0.00;;;0.00;;
54815;SDS011;40715;55.752;37.884;2022-09-09T03:02:29;0.00;;;0.00;;
54815;SDS011;40715;55.752;37.884;2022-09-09T03:04:56;0.00;;;0.00;;
54815;SDS011;40715;55.752;37.884;2022-09-09T03:07:24;0.00;;;0.00;;
54815;SDS011;40715;55.752;37.884;2022-09-09T03:09:53;0.00;;;0.00;;
54815;SDS011;40715;55.752;37.884;2022-09-09T03:12:20;0.00;;;0.00;;
54815;SDS011;40715;55.752;37.884;2022-09-09T03:14:47;0.00;;;0.00;;
54815;SDS011;40715;55.752;37.884;2022-09-09T03:17:14;0.00;;;0.00;;
54815;SDS011;40715;55.752;37.884;2022-09-09T03:19:40;0.00;;;0.00;;
54815;SDS011;40715;55.752;37.884;2022-09-09T03:22:09;0.00;;;0.00;;
54815;SDS011;40715;55.752;37.884;2022-09-09T03:24:36;0.00;;;0.00;;
54815;SDS011;40715;55.752;37.884;2022-09-09T03:27:03;0.00;;;0.00;;
54815;SDS011;40715;55.752;37.884;2022-09-09T03:29:30;0.00;;;0.00;;
54815;SDS011;40715;55.752;37.884;2022-09-09T03:31:57;0.00;;;0.00;;
54815;SDS011;40715;55.752;37.884;2022-09-09T03:34:24;0.00;;;0.00;;
54815;SDS011;40715;55.752;37.884;2022-09-09T03:36:51;0.10;;;0.00;;
54815;SDS011;40715;55.752;37.884;2022-09-09T03:39:18;0.00;;;0.00;;
54815;SDS011;40715;55.752;37.884;2022-09-09T03:41:45;0.00;;;0.00;;
54815;SDS011;40715;55.752;37.884;2022-09-09T03:44:14;0.00;;;0.00;;
54815;SDS011;40715;55.752;37.884;2022-09-09T03:46:41;0.00;;;0.00;;
54815;SDS011;40715;55.752;37.884;2022-09-09T03:49:08;0.00;;;0.00;;
54815;SDS011;40715;55.752;37.884;2022-09-09T03:51:36;0.00;;;0.00;;
54815;SDS011;40715;55.752;37.884;2022-09-09T03:54:04;0.00;;;0.00;;
54815;SDS011;40715;55.752;37.884;2022-09-09T03:56:34;0.00;;;0.00;;
54815;SDS011;40715;55.752;37.884;2022-09-09T03:59:02;0.00;;;0.00;;
54815;SDS011;40715;55.752;37.884;2022-09-09T04:01:29;0.00;;;0.00;;
54815;SDS011;40715;55.752;37.884;2022-09-09T04:03:56;0.00;;;0.00;;
54815;SDS011;40715;55.752;37.884;2022-09-09T04:06:24;0.00;;;0.00;;
54815;SDS011;40715;55.752;37.884;2022-09-09T04:08:52;0.00;;;0.00;;
54815;SDS011;40715;55.752;37.884;2022-09-09T04:11:19;0.00;;;0.00;;
54815;SDS011;40715;55.752;37.884;2022-09-09T04:13:47;0.00;;;0.00;;
54815;SDS011;40715;55.752;37.884;2022-09-09T04:16:14;0.00;;;0.00;;
54815;SDS011;40715;55.752;37.884;2022-09-09T04:18:41;0.00;;;0.00;;
54815;SDS011;40715;55.752;37.884;2022-09-09T04:21:09;0.10;;;0.10;;
54815;SDS011;40715;55.752;37.884;2022-09-09T04:23:36;0.10;;;0.10;;
54815;SDS011;40715;55.752;37.884;2022-09-09T04:26:04;0.10;;;0.10;;
54815;SDS011;40715;55.752;37.884;2022-09-09T04:28:32;0.10;;;0.10;;
54815;SDS011;40715;55.752;37.884;2022-09-09T04:31:09;0.10;;;0.10;;
54815;SDS011;40715;55.752;37.884;2022-09-09T04:33:41;0.10;;;0.10;;
54815;SDS011;40715;55.752;37.884;2022-09-09T04:36:07;0.10;;;0.10;;
54815;SDS011;40715;55.752;37.884;2022-09-09T04:38:35;0.20;;;0.20;;
54815;SDS011;40715;55.752;37.884;2022-09-09T04:41:02;0.20;;;0.20;;
54815;SDS011;40715;55.752;37.884;2022-09-09T04:43:29;0.20;;;0.20;;
54815;SDS011;40715;55.752;37.884;2022-09-09T04:45:57;0.20;;;0.20;;
54815;SDS011;40715;55.752;37.884;2022-09-09T04:48:25;0.20;;;0.20;;
54815;SDS011;40715;55.752;37.884;2022-09-09T04:50:57;0.22;;;0.22;;
54815;SDS011;40715;55.752;37.884;2022-09-09T04:53:28;0.20;;;0.20;;
54815;SDS011;40715;55.752;37.884;2022-09-09T04:56:05;0.30;;;0.30;;
54815;SDS011;40715;55.752;37.884;2022-09-09T04:58:34;0.20;;;0.20;;
54815;SDS011;40715;55.752;37.884;2022-09-09T05:01:10;0.20;;;0.20;;
54815;SDS011;40715;55.752;37.884;2022-09-09T05:03:39;0.30;;;0.30;;
54815;SDS011;40715;55.752;37.884;2022-09-09T05:06:06;0.40;;;0.40;;
54815;SDS011;40715;55.752;37.884;2022-09-09T05:08:36;0.30;;;0.30;;
54815;SDS011;40715;55.752;37.884;2022-09-09T05:11:12;0.30;;;0.30;;
54815;SDS011;40715;55.752;37.884;2022-09-09T05:13:50;0.30;;;0.30;;
54815;SDS011;40715;55.752;37.884;2022-09-09T05:16:18;0.40;;;0.40;;
54815;SDS011;40715;55.752;37.884;2022-09-09T05:18:47;0.40;;;0.40;;
54815;SDS011;40715;55.752;37.884;2022-09-09T05:21:15;0.40;;;0.40;;
54815;SDS011;40715;55.752;37.884;2022-09-09T05:23:42;0.45;;;0.45;;
54815;SDS011;40715;55.752;37.884;2022-09-09T05:26:13;0.40;;;0.40;;
54815;SDS011;40715;55.752;37.884;2022-09-09T05:28:43;0.40;;;0.40;;
54815;SDS011;40715;55.752;37.884;2022-09-09T05:31:11;0.43;;;0.43;;
54815;SDS011;40715;55.752;37.884;2022-09-09T05:33:40;0.40;;;0.40;;
54815;SDS011;40715;55.752;37.884;2022-09-09T05:36:10;0.50;;;0.50;;
54815;SDS011;40715;55.752;37.884;2022-09-09T05:38:42;0.60;;;0.60;;
54815;SDS011;40715;55.752;37.884;2022-09-09T05:41:09;0.55;;;0.55;;
54815;SDS011;40715;55.752;37.884;2022-09-09T05:43:38;0.70;;;0.70;;
54815;SDS011;40715;55.752;37.884;2022-09-09T05:46:09;0.50;;;0.50;;
54815;SDS011;40715;55.752;37.884;2022-09-09T05:48:38;0.60;;;0.60;;
54815;SDS011;40715;55.752;37.884;2022-09-09T05:51:08;0.60;;;0.60;;
54815;SDS011;40715;55.752;37.884;2022-09-09T05:53:39;0.73;;;0.73;;
54815;SDS011;40715;55.752;37.884;2022-09-09T05:56:07;0.70;;;0.70;;
54815;SDS011;40715;55.752;37.884;2022-09-09T05:58:38;1.00;;;1.00;;
54815;SDS011;40715;55.752;37.884;2022-09-09T06:01:09;1.13;;;1.13;;
54815;SDS011;40715;55.752;37.884;2022-09-09T06:03:38;0.70;;;0.70;;
54815;SDS011;40715;55.752;37.884;2022-09-09T06:06:08;1.30;;;1.30;;
54815;SDS011;40715;55.752;37.884;2022-09-09T06:08:38;0.93;;;0.93;;
54815;SDS011;40715;55.752;37.884;2022-09-09T06:11:26;0.85;;;0.85;;
54815;SDS011;40715;55.752;37.884;2022-09-09T06:13:57;1.13;;;1.13;;
54815;SDS011;40715;55.752;37.884;2022-09-09T06:16:26;1.00;;;1.00;;
54815;SDS011;40715;55.752;37.884;2022-09-09T06:18:55;1.17;;;1.17;;
54815;SDS011;40715;55.752;37.884;2022-09-09T06:21:26;1.23;;;1.23;;
54815;SDS011;40715;55.752;37.884;2022-09-09T06:23:54;1.30;;;1.30;;
54815;SDS011;40715;55.752;37.884;2022-09-09T06:26:27;1.40;;;1.40;;
54815;SDS011;40715;55.752;37.884;2022-09-09T06:28:59;1.50;;;1.50;;
54815;SDS011;40715;55.752;37.884;2022-09-09T06:31:28;1.50;;;1.50;;
54815;SDS011;40715;55.752;37.884;2022-09-09T06:33:57;1.50;;;1.50;;
54815;SDS011;40715;55.752;37.884;2022-09-09T06:36:25;1.40;;;1.40;;
54815;SDS011;40715;55.752;37.884;2022-09-09T06:38:53;1.63;;;1.63;;
54815;SDS011;40715;55.752;37.884;2022-09-09T06:41:20;1.85;;;1.85;;
54815;SDS011;40715;55.752;37.884;2022-09-09T06:43:48;1.67;;;1.67;;
54815;SDS011;40715;55.752;37.884;2022-09-09T06:46:17;1.27;;;1.27;;
54815;SDS011;40715;55.752;37.884;2022-09-09T06:48:45;1.25;;;1.25;;
54815;SDS011;40715;55.752;37.884;2022-09-09T06:51:19;1.20;;;1.20;;
54815;SDS011;40715;55.752;37.884;2022-09-09T06:53:50;0.60;;;0.60;;
54815;SDS011;40715;55.752;37.884;2022-09-09T06:56:24;0.47;;;0.47;;
54815;SDS011;40715;55.752;37.884;2022-09-09T06:58:58;0.40;;;0.40;;
54815;SDS011;40715;55.752;37.884;2022-09-09T07:01:31;0.30;;;0.30;;
54815;SDS011;40715;55.752;37.884;2022-09-09T07:03:59;0.30;;;0.30;;
54815;SDS011;40715;55.752;37.884;2022-09-09T07:06:28;0.20;;;0.20;;
54815;SDS011;40715;55.752;37.884;2022-09-09T07:08:59;0.20;;;0.20;;
54815;SDS011;40715;55.752;37.884;2022-09-09T07:11:28;0.20;;;0.20;;
54815;SDS011;40715;55.752;37.884;2022-09-09T07:13:57;0.10;;;0.10;;
54815;SDS011;40715;55.752;37.884;2022-09-09T07:16:26;0.40;;;0.40;;
54815;SDS011;40715;55.752;37.884;2022-09-09T07:18:58;0.50;;;0.50;;
54815;SDS011;40715;55.752;37.884;2022-09-09T07:21:27;0.77;;;0.77;;
54815;SDS011;40715;55.752;37.884;2022-09-09T07:23:55;1.23;;;1.23;;
54815;SDS011;40715;55.752;37.884;2022-09-09T07:26:23;1.52;;;1.52;;
54815;SDS011;40715;55.752;37.884;2022-09-09T07:28:53;1.52;;;1.52;;
54815;SDS011;40715;55.752;37.884;2022-09-09T07:31:22;1.20;;;1.20;;
54815;SDS011;40715;55.752;37.884;2022-09-09T07:33:52;1.20;;;1.20;;
54815;SDS011;40715;55.752;37.884;2022-09-09T07:36:21;1.25;;;1.25;;
54815;SDS011;40715;55.752;37.884;2022-09-09T07:38:56;1.30;;;1.30;;
54815;SDS011;40715;55.752;37.884;2022-09-09T07:41:26;0.60;;;0.60;;
54815;SDS011;40715;55.752;37.884;2022-09-09T07:44:21;0.52;;;0.52;;
54815;SDS011;40715;55.752;37.884;2022-09-09T07:46:51;0.68;;;0.68;;
54815;SDS011;40715;55.752;37.884;2022-09-09T07:49:18;0.40;;;0.40;;
54815;SDS011;40715;55.752;37.884;2022-09-09T07:51:51;0.70;;;0.70;;
54815;SDS011;40715;55.752;37.884;2022-09-09T07:54:19;0.70;;;0.70;;
54815;SDS011;40715;55.752;37.884;2022-09-09T07:56:46;0.90;;;0.90;;
54815;SDS011;40715;55.752;37.884;2022-09-09T07:59:13;1.30;;;1.30;;
54815;SDS011;40715;55.752;37.884;2022-09-09T08:01:42;2.08;;;2.00;;
54815;SDS011;40715;55.752;37.884;2022-09-09T08:04:15;2.30;;;2.20;;
54815;SDS011;40715;55.752;37.884;2022-09-09T08:06:48;2.10;;;2.10;;
54815;SDS011;40715;55.752;37.884;2022-09-09T08:09:27;1.52;;;1.52;;
54815;SDS011;40715;55.752;37.884;2022-09-09T08:11:56;1.10;;;1.10;;
54815;SDS011;40715;55.752;37.884;2022-09-09T08:14:23;0.80;;;0.80;;
54815;SDS011;40715;55.752;37.884;2022-09-09T08:16:51;0.50;;;0.50;;
54815;SDS011;40715;55.752;37.884;2022-09-09T08:19:20;0.30;;;0.30;;
54815;SDS011;40715;55.752;37.884;2022-09-09T08:21:47;0.20;;;0.20;;
54815;SDS011;40715;55.752;37.884;2022-09-09T08:24:15;0.13;;;0.13;;
54815;SDS011;40715;55.752;37.884;2022-09-09T08:26:43;0.10;;;0.10;;
54815;SDS011;40715;55.752;37.884;2022-09-09T08:29:13;0.30;;;0.30;;
54815;SDS011;40715;55.752;37.884;2022-09-09T08:31:41;0.40;;;0.40;;
54815;SDS011;40715;55.752;37.884;2022-09-09T08:34:17;0.47;;;0.47;;
54815;SDS011;40715;55.752;37.884;2022-09-09T08:36:46;0.20;;;0.20;;
54815;SDS011;40715;55.752;37.884;2022-09-09T08:39:15;0.20;;;0.20;;
54815;SDS011;40715;55.752;37.884;2022-09-09T08:52:50;0.65;;;0.65;;
54815;SDS011;40715;55.752;37.884;2022-09-09T09:00:48;0.20;;;0.20;;
54815;SDS011;40715;55.752;37.884;2022-09-09T09:03:42;0.20;;;0.20;;
54815;SDS011;40715;55.752;37.884;2022-09-09T09:11:17;0.40;;;0.40;;
54815;SDS011;40715;55.752;37.884;2022-09-09T09:14:03;0.30;;;0.30;;
54815;SDS011;40715;55.752;37.884;2022-09-09T09:19:21;0.17;;;0.17;;
54815;SDS011;40715;55.752;37.884;2022-09-09T09:22:04;0.10;;;0.10;;
54815;SDS011;40715;55.752;37.884;2022-09-09T09:27:33;0.00;;;0.00;;
54815;SDS011;40715;55.752;37.884;2022-09-09T09:30:10;0.00;;;0.00;;
54815;SDS011;40715;55.752;37.884;2022-09-09T09:32:54;0.00;;;0.00;;
54815;SDS011;40715;55.752;37.884;2022-09-09T09:35:25;0.00;;;0.00;;
54815;SDS011;40715;55.752;37.884;2022-09-09T09:37:52;0.00;;;0.00;;
54815;SDS011;40715;55.752;37.884;2022-09-09T09:40:47;0.00;;;0.00;;
54815;SDS011;40715;55.752;37.884;2022-09-09T09:43:20;0.00;;;0.00;;
54815;SDS011;40715;55.752;37.884;2022-09-09T09:45:51;0.10;;;0.00;;
54815;SDS011;40715;55.752;37.884;2022-09-09T09:48:38;0.00;;;0.00;;
54815;SDS011;40715;55.752;37.884;2022-09-09T09:51:09;0.00;;;0.00;;
54815;SDS011;40715;55.752;37.884;2022-09-09T09:53:40;0.00;;;0.00;;
54815;SDS011;40715;55.752;37.884;2022-09-09T09:56:08;0.00;;;0.00;;
54815;SDS011;40715;55.752;37.884;2022-09-09T10:01:32;0.00;;;0.00;;
54815;SDS011;40715;55.752;37.884;2022-09-09T10:09:04;0.00;;;0.00;;
54815;SDS011;40715;55.752;37.884;2022-09-09T10:14:32;0.00;;;0.00;;
54815;SDS011;40715;55.752;37.884;2022-09-09T10:24:54;0.00;;;0.00;;
54815;SDS011;40715;55.752;37.884;2022-09-09T10:33:51;0.00;;;0.00;;
54815;SDS011;40715;55.752;37.884;2022-09-09T10:36:57;0.00;;;0.00;;
54815;SDS011;40715;55.752;37.884;2022-09-09T10:47:06;0.00;;;0.00;;
54815;SDS011;40715;55.752;37.884;2022-09-09T10:55:47;0.00;;;0.00;;
54815;SDS011;40715;55.752;37.884;2022-09-09T10:58:20;0.00;;;0.00;;
54815;SDS011;40715;55.752;37.884;2022-09-09T11:01:06;0.00;;;0.00;;
54815;SDS011;40715;55.752;37.884;2022-09-09T11:03:42;0.00;;;0.00;;
54815;SDS011;40715;55.752;37.884;2022-09-09T11:06:13;0.00;;;0.00;;
54815;SDS011;40715;55.752;37.884;2022-09-09T11:08:44;0.00;;;0.00;;
54815;SDS011;40715;55.752;37.884;2022-09-09T11:11:26;0.00;;;0.00;;
54815;SDS011;40715;55.752;37.884;2022-09-09T11:14:03;0.00;;;0.00;;
54815;SDS011;40715;55.752;37.884;2022-09-09T11:16:49;0.00;;;0.00;;
54815;SDS011;40715;55.752;37.884;2022-09-09T11:19:24;0.00;;;0.00;;
54815;SDS011;40715;55.752;37.884;2022-09-09T11:25:15;0.00;;;0.00;;
54815;SDS011;40715;55.752;37.884;2022-09-09T11:39:19;0.00;;;0.00;;
54815;SDS011;40715;55.752;37.884;2022-09-09T11:41:50;0.00;;;0.00;;
54815;SDS011;40715;55.752;37.884;2022-09-09T11:44:24;0.00;;;0.00;;
54815;SDS011;40715;55.752;37.884;2022-09-09T11:46:56;0.00;;;0.00;;
54815;SDS011;40715;55.752;37.884;2022-09-09T11:49:44;0.00;;;0.00;;
54815;SDS011;40715;55.752;37.884;2022-09-09T11:54:49;0.00;;;0.00;;
54815;SDS011;40715;55.752;37.884;2022-09-09T11:57:29;0.00;;;0.00;;
54815;SDS011;40715;55.752;37.884;2022-09-09T12:00:00;0.00;;;0.00;;
54815;SDS011;40715;55.752;37.884;2022-09-09T12:02:29;0.00;;;0.00;;
54815;SDS011;40715;55.752;37.884;2022-09-09T12:05:02;0.00;;;0.00;;
54815;SDS011;40715;55.752;37.884;2022-09-09T12:07:39;0.00;;;0.00;;
54815;SDS011;40715;55.752;37.884;2022-09-09T12:10:26;0.00;;;0.00;;
54815;SDS011;40715;55.752;37.884;2022-09-09T12:15:49;0.00;;;0.00;;
54815;SDS011;40715;55.752;37.884;2022-09-09T12:18:22;0.00;;;0.00;;
54815;SDS011;40715;55.752;37.884;2022-09-09T12:20:54;0.00;;;0.00;;
54815;SDS011;40715;55.752;37.884;2022-09-09T12:23:40;0.00;;;0.00;;
54815;SDS011;40715;55.752;37.884;2022-09-09T12:26:31;0.00;;;0.00;;
54815;SDS011;40715;55.752;37.884;2022-09-09T12:39:42;0.00;;;0.00;;
54815;SDS011;40715;55.752;37.884;2022-09-09T12:42:31;0.00;;;0.00;;
54815;SDS011;40715;55.752;37.884;2022-09-09T12:45:15;0.00;;;0.00;;
54815;SDS011;40715;55.752;37.884;2022-09-09T12:47:54;0.00;;;0.00;;
54815;SDS011;40715;55.752;37.884;2022-09-09T12:50:26;0.00;;;0.00;;
54815;SDS011;40715;55.752;37.884;2022-09-09T12:52:57;0.00;;;0.00;;
54815;SDS011;40715;55.752;37.884;2022-09-09T12:55:29;0.00;;;0.00;;
54815;SDS011;40715;55.752;37.884;2022-09-09T12:58:00;0.00;;;0.00;;
54815;SDS011;40715;55.752;37.884;2022-09-09T13:00:31;0.00;;;0.00;;
54815;SDS011;40715;55.752;37.884;2022-09-09T13:03:00;0.00;;;0.00;;
54815;SDS011;40715;55.752;37.884;2022-09-09T13:05:43;0.00;;;0.00;;
54815;SDS011;40715;55.752;37.884;2022-09-09T13:08:11;0.00;;;0.00;;
54815;SDS011;40715;55.752;37.884;2022-09-09T13:10:47;0.00;;;0.00;;
54815;SDS011;40715;55.752;37.884;2022-09-09T13:13:27;0.00;;;0.00;;
54815;SDS011;40715;55.752;37.884;2022-09-09T13:15:58;0.00;;;0.00;;
54815;SDS011;40715;55.752;37.884;2022-09-09T13:18:30;0.00;;;0.00;;
54815;SDS011;40715;55.752;37.884;2022-09-09T13:21:00;0.00;;;0.00;;
54815;SDS011;40715;55.752;37.884;2022-09-09T13:23:29;0.00;;;0.00;;
54815;SDS011;40715;55.752;37.884;2022-09-09T13:25:59;0.10;;;0.00;;
54815;SDS011;40715;55.752;37.884;2022-09-09T13:28:29;0.00;;;0.00;;
54815;SDS011;40715;55.752;37.884;2022-09-09T13:30:59;0.00;;;0.00;;
54815;SDS011;40715;55.752;37.884;2022-09-09T13:33:46;0.00;;;0.00;;
54815;SDS011;40715;55.752;37.884;2022-09-09T13:36:13;0.00;;;0.00;;
54815;SDS011;40715;55.752;37.884;2022-09-09T13:38:53;0.00;;;0.00;;
54815;SDS011;40715;55.752;37.884;2022-09-09T13:41:27;0.00;;;0.00;;
54815;SDS011;40715;55.752;37.884;2022-09-09T13:43:58;0.00;;;0.00;;
54815;SDS011;40715;55.752;37.884;2022-09-09T13:46:39;0.00;;;0.00;;
54815;SDS011;40715;55.752;37.884;2022-09-09T13:54:06;0.00;;;0.00;;
54815;SDS011;40715;55.752;37.884;2022-09-09T13:56:37;0.00;;;0.00;;
54815;SDS011;40715;55.752;37.884;2022-09-09T13:59:06;0.00;;;0.00;;
54815;SDS011;40715;55.752;37.884;2022-09-09T14:01:37;0.00;;;0.00;;
54815;SDS011;40715;55.752;37.884;2022-09-09T14:04:04;0.00;;;0.00;;
54815;SDS011;40715;55.752;37.884;2022-09-09T14:06:35;0.00;;;0.00;;
54815;SDS011;40715;55.752;37.884;2022-09-09T14:09:09;0.00;;;0.00;;
54815;SDS011;40715;55.752;37.884;2022-09-09T14:11:38;0.00;;;0.00;;
54815;SDS011;40715;55.752;37.884;2022-09-09T14:14:05;0.00;;;0.00;;
54815;SDS011;40715;55.752;37.884;2022-09-09T14:16:32;0.00;;;0.00;;
54815;SDS011;40715;55.752;37.884;2022-09-09T14:18:59;0.03;;;0.00;;
54815;SDS011;40715;55.752;37.884;2022-09-09T14:21:27;0.10;;;0.00;;
54815;SDS011;40715;55.752;37.884;2022-09-09T14:23:54;0.00;;;0.00;;
54815;SDS011;40715;55.752;37.884;2022-09-09T14:26:21;0.00;;;0.00;;
54815;SDS011;40715;55.752;37.884;2022-09-09T14:28:48;0.00;;;0.00;;
54815;SDS011;40715;55.752;37.884;2022-09-09T14:31:21;0.00;;;0.00;;
54815;SDS011;40715;55.752;37.884;2022-09-09T14:33:51;0.00;;;0.00;;
54815;SDS011;40715;55.752;37.884;2022-09-09T14:36:19;0.00;;;0.00;;
54815;SDS011;40715;55.752;37.884;2022-09-09T14:38:46;0.00;;;0.00;;
54815;SDS011;40715;55.752;37.884;2022-09-09T14:41:14;0.00;;;0.00;;
54815;SDS011;40715;55.752;37.884;2022-09-09T14:43:46;0.00;;;0.00;;
54815;SDS011;40715;55.752;37.884;2022-09-09T14:46:14;0.00;;;0.00;;
54815;SDS011;40715;55.752;37.884;2022-09-09T14:48:43;0.00;;;0.00;;
54815;SDS011;40715;55.752;37.884;2022-09-09T14:51:15;0.00;;;0.00;;
54815;SDS011;40715;55.752;37.884;2022-09-09T14:53:46;0.00;;;0.00;;
54815;SDS011;40715;55.752;37.884;2022-09-09T14:56:14;0.00;;;0.00;;
54815;SDS011;40715;55.752;37.884;2022-09-09T14:58:42;0.00;;;0.00;;
54815;SDS011;40715;55.752;37.884;2022-09-09T15:01:10;0.00;;;0.00;;
54815;SDS011;40715;55.752;37.884;2022-09-09T15:03:40;0.00;;;0.00;;
54815;SDS011;40715;55.752;37.884;2022-09-09T15:06:10;0.00;;;0.00;;
54815;SDS011;40715;55.752;37.884;2022-09-09T15:08:40;0.00;;;0.00;;
54815;SDS011;40715;55.752;37.884;2022-09-09T15:11:09;0.00;;;0.00;;
54815;SDS011;40715;55.752;37.884;2022-09-09T15:13:37;0.00;;;0.00;;
54815;SDS011;40715;55.752;37.884;2022-09-09T15:16:07;0.00;;;0.00;;
54815;SDS011;40715;55.752;37.884;2022-09-09T15:18:35;0.00;;;0.00;;
54815;SDS011;40715;55.752;37.884;2022-09-09T15:21:03;0.00;;;0.00;;
54815;SDS011;40715;55.752;37.884;2022-09-09T15:23:34;0.00;;;0.00;;
54815;SDS011;40715;55.752;37.884;2022-09-09T15:26:02;0.00;;;0.00;;
54815;SDS011;40715;55.752;37.884;2022-09-09T15:28:34;0.10;;;0.00;;
54815;SDS011;40715;55.752;37.884;2022-09-09T15:31:07;0.00;;;0.00;;
54815;SDS011;40715;55.752;37.884;2022-09-09T15:33:38;0.00;;;0.00;;
54815;SDS011;40715;55.752;37.884;2022-09-09T15:36:15;0.00;;;0.00;;
54815;SDS011;40715;55.752;37.884;2022-09-09T15:38:46;0.00;;;0.00;;
54815;SDS011;40715;55.752;37.884;2022-09-09T15:41:14;0.00;;;0.00;;
54815;SDS011;40715;55.752;37.884;2022-09-09T15:43:45;0.20;;;0.00;;
54815;SDS011;40715;55.752;37.884;2022-09-09T15:48:44;0.00;;;0.00;;
54815;SDS011;40715;55.752;37.884;2022-09-09T15:51:12;0.00;;;0.00;;
54815;SDS011;40715;55.752;37.884;2022-09-09T15:54:00;0.00;;;0.00;;
54815;SDS011;40715;55.752;37.884;2022-09-09T15:56:28;0.00;;;0.00;;
54815;SDS011;40715;55.752;37.884;2022-09-09T15:59:02;0.00;;;0.00;;
54815;SDS011;40715;55.752;37.884;2022-09-09T16:01:30;0.00;;;0.00;;
54815;SDS011;40715;55.752;37.884;2022-09-09T16:03:58;0.10;;;0.00;;
54815;SDS011;40715;55.752;37.884;2022-09-09T16:06:27;0.00;;;0.00;;
54815;SDS011;40715;55.752;37.884;2022-09-09T16:08:56;0.00;;;0.00;;
54815;SDS011;40715;55.752;37.884;2022-09-09T16:11:28;0.00;;;0.00;;
54815;SDS011;40715;55.752;37.884;2022-09-09T16:13:57;0.00;;;0.00;;
54815;SDS011;40715;55.752;37.884;2022-09-09T16:16:26;0.00;;;0.00;;
54815;SDS011;40715;55.752;37.884;2022-09-09T16:18:56;0.00;;;0.00;;
54815;SDS011;40715;55.752;37.884;2022-09-09T16:21:32;0.00;;;0.00;;
54815;SDS011;40715;55.752;37.884;2022-09-09T16:24:02;0.00;;;0.00;;
54815;SDS011;40715;55.752;37.884;2022-09-09T16:26:31;0.00;;;0.00;;
54815;SDS011;40715;55.752;37.884;2022-09-09T16:29:00;0.00;;;0.00;;
54815;SDS011;40715;55.752;37.884;2022-09-09T16:31:29;0.00;;;0.00;;
54815;SDS011;40715;55.752;37.884;2022-09-09T16:33:58;0.00;;;0.00;;
54815;SDS011;40715;55.752;37.884;2022-09-09T16:36:26;0.00;;;0.00;;
54815;SDS011;40715;55.752;37.884;2022-09-09T16:39:00;0.00;;;0.00;;
54815;SDS011;40715;55.752;37.884;2022-09-09T16:41:30;0.00;;;0.00;;
54815;SDS011;40715;55.752;37.884;2022-09-09T16:43:59;0.00;;;0.00;;
54815;SDS011;40715;55.752;37.884;2022-09-09T16:46:31;0.03;;;0.00;;
54815;SDS011;40715;55.752;37.884;2022-09-09T16:49:01;0.00;;;0.00;;
54815;SDS011;40715;55.752;37.884;2022-09-09T16:51:32;0.00;;;0.00;;
54815;SDS011;40715;55.752;37.884;2022-09-09T16:54:02;0.00;;;0.00;;
54815;SDS011;40715;55.752;37.884;2022-09-09T16:56:32;0.00;;;0.00;;
54815;SDS011;40715;55.752;37.884;2022-09-09T16:59:08;0.00;;;0.00;;
54815;SDS011;40715;55.752;37.884;2022-09-09T17:01:43;0.00;;;0.00;;
54815;SDS011;40715;55.752;37.884;2022-09-09T17:04:12;0.00;;;0.00;;
54815;SDS011;40715;55.752;37.884;2022-09-09T17:06:45;0.00;;;0.00;;
54815;SDS011;40715;55.752;37.884;2022-09-09T17:09:15;0.00;;;0.00;;
54815;SDS011;40715;55.752;37.884;2022-09-09T17:11:43;0.00;;;0.00;;
54815;SDS011;40715;55.752;37.884;2022-09-09T17:14:13;0.00;;;0.00;;
54815;SDS011;40715;55.752;37.884;2022-09-09T17:16:43;0.00;;;0.00;;
54815;SDS011;40715;55.752;37.884;2022-09-09T17:19:10;0.00;;;0.00;;
54815;SDS011;40715;55.752;37.884;2022-09-09T17:21:38;0.00;;;0.00;;
54815;SDS011;40715;55.752;37.884;2022-09-09T17:26:56;0.00;;;0.00;;
54815;SDS011;40715;55.752;37.884;2022-09-09T17:29:24;0.00;;;0.00;;
54815;SDS011;40715;55.752;37.884;2022-09-09T17:31:52;0.00;;;0.00;;